createdAt,value
2018-02-01T00:00:04.613Z,990.5
2018-02-01T00:00:45.161Z,990.52
2018-02-01T00:01:25.673Z,990.57
2018-02-01T00:02:06.246Z,990.53
2018-02-01T00:02:46.799Z,990.56
2018-02-01T00:03:27.343Z,990.58
2018-02-01T00:04:07.912Z,990.58
2018-02-01T00:04:48.472Z,990.63
2018-02-01T00:05:29.052Z,990.58
2018-02-01T00:06:09.597Z,990.66
2018-02-01T00:06:50.137Z,990.56
2018-02-01T00:07:30.701Z,990.62
2018-02-01T00:08:11.261Z,990.63
2018-02-01T00:08:51.832Z,990.58
2018-02-01T00:09:32.351Z,990.63
2018-02-01T00:10:12.920Z,990.59
2018-02-01T00:10:53.426Z,990.53
2018-02-01T00:11:33.993Z,990.59
2018-02-01T00:12:14.583Z,990.59
2018-02-01T00:12:55.148Z,990.64
2018-02-01T00:13:35.683Z,990.6
2018-02-01T00:14:16.230Z,990.61
2018-02-01T00:14:56.773Z,990.65
2018-02-01T00:15:37.314Z,990.62
2018-02-01T00:16:17.853Z,990.58
2018-02-01T00:16:58.401Z,990.6
2018-02-01T00:17:38.958Z,990.61
2018-02-01T00:18:19.487Z,990.61
2018-02-01T00:19:00.045Z,990.6
2018-02-01T00:19:40.615Z,990.64
2018-02-01T00:20:21.216Z,990.67
2018-02-01T00:21:01.730Z,990.58
2018-02-01T00:21:42.253Z,990.62
2018-02-01T00:22:22.805Z,990.63
2018-02-01T00:23:03.321Z,990.63
2018-02-01T00:23:43.855Z,990.57
2018-02-01T00:24:24.411Z,990.56
2018-02-01T00:25:04.980Z,990.57
2018-02-01T00:25:45.538Z,990.68
2018-02-01T00:26:26.115Z,990.6
2018-02-01T00:27:06.625Z,990.67
2018-02-01T00:27:47.153Z,990.63
2018-02-01T00:28:27.699Z,990.69
2018-02-01T00:29:08.235Z,990.6
2018-02-01T00:29:48.801Z,990.66
2018-02-01T00:30:29.365Z,990.58
2018-02-01T00:31:09.883Z,990.65
2018-02-01T00:31:50.435Z,990.59
2018-02-01T00:32:30.976Z,990.62
2018-02-01T00:33:11.510Z,990.56
2018-02-01T00:33:52.067Z,990.53
2018-02-01T00:34:32.586Z,990.55
2018-02-01T00:35:13.129Z,990.57
2018-02-01T00:35:53.676Z,990.57
2018-02-01T00:36:34.229Z,990.6
2018-02-01T00:37:14.791Z,990.56
2018-02-01T00:37:55.363Z,990.57
2018-02-01T00:38:35.886Z,990.61
2018-02-01T00:39:16.444Z,990.52
2018-02-01T00:39:56.954Z,990.67
2018-02-01T00:40:37.536Z,990.65
2018-02-01T00:41:18.036Z,990.57
2018-02-01T00:41:58.603Z,990.62
2018-02-01T00:42:39.176Z,990.66
2018-02-01T00:43:19.758Z,990.64
2018-02-01T00:44:00.300Z,990.62
2018-02-01T00:44:40.839Z,990.67
2018-02-01T00:45:21.403Z,990.65
2018-02-01T00:46:01.941Z,990.68
2018-02-01T00:46:42.483Z,990.63
2018-02-01T00:47:23.061Z,990.73
2018-02-01T00:48:03.595Z,990.72
2018-02-01T00:48:44.120Z,990.68
2018-02-01T00:49:24.713Z,990.72
2018-02-01T00:50:05.241Z,990.71
2018-02-01T00:50:45.788Z,990.71
2018-02-01T00:51:26.359Z,990.73
2018-02-01T00:52:06.887Z,990.7
2018-02-01T00:52:47.402Z,990.7
2018-02-01T00:53:27.978Z,990.7
2018-02-01T00:54:08.490Z,990.64
2018-02-01T00:54:49.062Z,990.64
2018-02-01T00:55:29.587Z,990.65
2018-02-01T00:56:10.155Z,990.65
2018-02-01T00:56:50.709Z,990.61
2018-02-01T00:57:31.243Z,990.69
2018-02-01T00:58:11.773Z,990.67
2018-02-01T00:58:52.314Z,990.62
2018-02-01T00:59:32.909Z,990.67
2018-02-01T01:00:13.406Z,990.67
2018-02-01T01:00:53.939Z,990.71
2018-02-01T01:01:34.494Z,990.67
2018-02-01T01:02:15.054Z,990.66
2018-02-01T01:02:55.625Z,990.71
2018-02-01T01:03:36.227Z,990.65
2018-02-01T01:04:16.756Z,990.66
2018-02-01T01:04:57.270Z,990.67
2018-02-01T01:05:37.824Z,990.69
2018-02-01T01:06:18.372Z,990.73
2018-02-01T01:06:58.909Z,990.7
2018-02-01T01:07:39.479Z,990.69
2018-02-01T01:08:20.030Z,990.7
2018-02-01T01:09:00.579Z,990.69
2018-02-01T01:09:41.135Z,990.71
2018-02-01T01:10:21.673Z,990.68
2018-02-01T01:11:02.244Z,990.69
2018-02-01T01:11:42.790Z,990.72
2018-02-01T01:12:23.402Z,990.7
2018-02-01T01:13:03.894Z,990.6
2018-02-01T01:13:44.439Z,990.73
2018-02-01T01:14:24.914Z,990.67
2018-02-01T01:15:05.496Z,990.73
2018-02-01T01:15:45.990Z,990.69
2018-02-01T01:16:26.554Z,990.67
2018-02-01T01:17:07.079Z,990.66
2018-02-01T01:17:47.652Z,990.68
2018-02-01T01:18:28.204Z,990.75
2018-02-01T01:19:08.724Z,990.7
2018-02-01T01:19:49.261Z,990.71
2018-02-01T01:20:29.786Z,990.65
2018-02-01T01:21:10.352Z,990.67
2018-02-01T01:21:50.915Z,990.65
2018-02-01T01:22:31.478Z,990.6
2018-02-01T01:23:12.013Z,990.62
2018-02-01T01:23:52.583Z,990.64
2018-02-01T01:24:33.124Z,990.58
2018-02-01T01:25:13.687Z,990.68
2018-02-01T01:25:54.261Z,990.68
2018-02-01T01:26:34.789Z,990.72
2018-02-01T01:27:15.332Z,990.74
2018-02-01T01:27:55.888Z,990.74
2018-02-01T01:28:36.455Z,990.73
2018-02-01T01:29:17.001Z,990.71
2018-02-01T01:29:57.492Z,990.78
2018-02-01T01:30:38.046Z,990.77
2018-02-01T01:31:18.607Z,990.79
2018-02-01T01:31:59.988Z,990.78
2018-02-01T01:32:40.534Z,990.76
2018-02-01T01:33:21.106Z,990.81
2018-02-01T01:34:01.633Z,990.9
2018-02-01T01:34:42.184Z,990.84
2018-02-01T01:35:22.771Z,990.84
2018-02-01T01:36:03.309Z,990.9
2018-02-01T01:36:43.854Z,990.92
2018-02-01T01:37:24.435Z,990.87
2018-02-01T01:38:04.948Z,990.9
2018-02-01T01:38:45.506Z,990.88
2018-02-01T01:39:26.031Z,990.91
2018-02-01T01:40:06.587Z,990.84
2018-02-01T01:40:47.117Z,990.94
2018-02-01T01:41:27.667Z,990.83
2018-02-01T01:42:08.217Z,990.83
2018-02-01T01:42:48.785Z,990.86
2018-02-01T01:43:29.345Z,990.86
2018-02-01T01:44:09.912Z,990.8
2018-02-01T01:44:50.528Z,990.84
2018-02-01T01:45:30.939Z,990.79
2018-02-01T01:46:11.482Z,990.81
2018-02-01T01:46:52.007Z,990.85
2018-02-01T01:47:32.554Z,990.75
2018-02-01T01:48:13.425Z,990.83
2018-02-01T01:48:53.920Z,990.89
2018-02-01T01:49:34.515Z,990.82
2018-02-01T01:50:15.050Z,990.78
2018-02-01T01:50:55.628Z,990.79
2018-02-01T01:51:36.142Z,990.75
2018-02-01T01:52:16.697Z,990.77
2018-02-01T01:52:57.230Z,990.7
2018-02-01T01:53:37.731Z,990.66
2018-02-01T01:54:18.276Z,990.69
2018-02-01T01:54:58.847Z,990.67
2018-02-01T01:55:39.368Z,990.69
2018-02-01T01:56:19.899Z,990.62
2018-02-01T01:57:00.425Z,990.65
2018-02-01T01:57:40.935Z,990.62
2018-02-01T01:58:21.528Z,990.6
2018-02-01T01:59:02.078Z,990.6
2018-02-01T01:59:42.737Z,990.6
2018-02-01T02:00:23.317Z,990.56
2018-02-01T02:01:03.906Z,990.58
2018-02-01T02:01:44.441Z,990.54
2018-02-01T02:02:24.997Z,990.54
2018-02-01T02:03:05.487Z,990.52
2018-02-01T02:03:46.015Z,990.53
2018-02-01T02:04:26.568Z,990.54
2018-02-01T02:05:07.103Z,990.56
2018-02-01T02:05:47.671Z,990.57
2018-02-01T02:06:28.211Z,990.59
2018-02-01T02:07:08.761Z,990.53
2018-02-01T02:07:49.285Z,990.53
2018-02-01T02:08:29.778Z,990.55
2018-02-01T02:09:10.322Z,990.51
2018-02-01T02:09:50.876Z,990.55
2018-02-01T02:10:31.453Z,990.52
2018-02-01T02:11:11.973Z,990.49
2018-02-01T02:11:52.551Z,990.5
2018-02-01T02:12:33.055Z,990.52
2018-02-01T02:13:13.613Z,990.48
2018-02-01T02:13:54.178Z,990.5
2018-02-01T02:14:34.761Z,990.45
2018-02-01T02:15:15.329Z,990.43
2018-02-01T02:15:55.842Z,990.45
2018-02-01T02:16:36.429Z,990.53
2018-02-01T02:17:16.892Z,990.49
2018-02-01T02:17:57.437Z,990.51
2018-02-01T02:18:37.952Z,990.46
2018-02-01T02:19:18.506Z,990.43
2018-02-01T02:19:59.004Z,990.46
2018-02-01T02:20:39.556Z,990.51
2018-02-01T02:21:20.120Z,990.49
2018-02-01T02:22:00.680Z,990.47
2018-02-01T02:22:41.250Z,990.46
2018-02-01T02:23:21.777Z,990.45
2018-02-01T02:24:02.325Z,990.38
2018-02-01T02:24:42.876Z,990.38
2018-02-01T02:25:23.404Z,990.36
2018-02-01T02:26:03.960Z,990.35
2018-02-01T02:26:44.529Z,990.35
2018-02-01T02:27:25.083Z,990.35
2018-02-01T02:28:05.651Z,990.32
2018-02-01T02:28:46.216Z,990.39
2018-02-01T02:29:26.749Z,990.31
2018-02-01T02:30:07.279Z,990.35
2018-02-01T02:30:47.841Z,990.37
2018-02-01T02:31:28.416Z,990.33
2018-02-01T02:32:08.910Z,990.38
2018-02-01T02:32:49.460Z,990.33
2018-02-01T02:33:30.021Z,990.31
2018-02-01T02:34:10.560Z,990.33
2018-02-01T02:34:51.086Z,990.32
2018-02-01T02:35:31.648Z,990.35
2018-02-01T02:36:12.171Z,990.31
2018-02-01T02:36:52.742Z,990.32
2018-02-01T02:37:33.237Z,990.32
2018-02-01T02:38:13.760Z,990.33
2018-02-01T02:38:54.333Z,990.27
2018-02-01T02:39:34.857Z,990.3
2018-02-01T02:40:15.403Z,990.29
2018-02-01T02:40:55.946Z,990.31
2018-02-01T02:41:36.516Z,990.33
2018-02-01T02:42:17.047Z,990.29
2018-02-01T02:42:57.604Z,990.29
2018-02-01T02:43:38.126Z,990.27
2018-02-01T02:44:18.683Z,990.27
2018-02-01T02:44:59.209Z,990.29
2018-02-01T02:45:39.778Z,990.24
2018-02-01T02:46:20.341Z,990.26
2018-02-01T02:47:00.899Z,990.25
2018-02-01T02:47:41.452Z,990.19
2018-02-01T02:48:21.990Z,990.2
2018-02-01T02:49:02.520Z,990.21
2018-02-01T02:49:43.112Z,990.21
2018-02-01T02:50:23.667Z,990.17
2018-02-01T02:51:04.184Z,990.22
2018-02-01T02:51:44.711Z,990.24
2018-02-01T02:52:25.273Z,990.28
2018-02-01T02:53:05.796Z,990.22
2018-02-01T02:53:46.378Z,990.24
2018-02-01T02:54:26.849Z,990.21
2018-02-01T02:55:07.369Z,990.18
2018-02-01T02:55:47.889Z,990.15
2018-02-01T02:56:28.450Z,990.19
2018-02-01T02:57:08.997Z,990.17
2018-02-01T02:57:49.574Z,990.12
2018-02-01T02:58:30.110Z,990.14
2018-02-01T02:59:10.655Z,990.13
2018-02-01T02:59:51.193Z,990.12
2018-02-01T03:00:31.732Z,990.19
2018-02-01T03:01:12.220Z,990.18
2018-02-01T03:01:52.785Z,990.17
2018-02-01T03:02:33.327Z,990.21
2018-02-01T03:03:13.869Z,990.19
2018-02-01T03:03:54.424Z,990.29
2018-02-01T03:04:34.937Z,990.25
2018-02-01T03:05:15.458Z,990.26
2018-02-01T03:05:56.072Z,990.25
2018-02-01T03:06:36.589Z,990.27
2018-02-01T03:07:17.104Z,990.24
2018-02-01T03:07:57.665Z,990.26
2018-02-01T03:08:38.207Z,990.26
2018-02-01T03:09:18.757Z,990.3
2018-02-01T03:09:59.285Z,990.27
2018-02-01T03:10:39.827Z,990.3
2018-02-01T03:11:20.392Z,990.36
2018-02-01T03:12:00.952Z,990.31
2018-02-01T03:12:41.522Z,990.32
2018-02-01T03:13:22.058Z,990.28
2018-02-01T03:14:02.608Z,990.33
2018-02-01T03:14:43.140Z,990.37
2018-02-01T03:15:23.729Z,990.29
2018-02-01T03:16:04.296Z,990.28
2018-02-01T03:16:44.785Z,990.27
2018-02-01T03:17:25.337Z,990.3
2018-02-01T03:18:05.916Z,990.3
2018-02-01T03:18:46.444Z,990.31
2018-02-01T03:19:26.979Z,990.31
2018-02-01T03:20:07.533Z,990.32
2018-02-01T03:20:48.018Z,990.33
2018-02-01T03:21:28.575Z,990.37
2018-02-01T03:22:09.147Z,990.32
2018-02-01T03:22:49.698Z,990.28
2018-02-01T03:23:30.229Z,990.3
2018-02-01T03:24:10.772Z,990.25
2018-02-01T03:24:51.352Z,990.29
2018-02-01T03:25:31.881Z,990.25
2018-02-01T03:26:12.470Z,990.28
2018-02-01T03:26:53.001Z,990.23
2018-02-01T03:27:33.564Z,990.25
2018-02-01T03:28:14.046Z,990.26
2018-02-01T03:28:54.600Z,990.34
2018-02-01T03:29:35.176Z,990.25
2018-02-01T03:30:15.669Z,990.24
2018-02-01T03:30:56.199Z,990.31
2018-02-01T03:31:36.753Z,990.31
2018-02-01T03:32:17.274Z,990.29
2018-02-01T03:32:57.811Z,990.28
2018-02-01T03:33:38.383Z,990.26
2018-02-01T03:34:18.898Z,990.25
2018-02-01T03:34:59.358Z,990.24
2018-02-01T03:35:39.921Z,990.28
2018-02-01T03:36:20.487Z,990.26
2018-02-01T03:37:01.009Z,990.24
2018-02-01T03:37:41.566Z,990.23
2018-02-01T03:38:22.109Z,990.26
2018-02-01T03:39:02.638Z,990.23
2018-02-01T03:39:43.161Z,990.26
2018-02-01T03:40:23.704Z,990.26
2018-02-01T03:41:04.242Z,990.21
2018-02-01T03:41:44.793Z,990.2
2018-02-01T03:42:25.330Z,990.2
2018-02-01T03:43:05.915Z,990.18
2018-02-01T03:43:46.451Z,990.21
2018-02-01T03:44:27.001Z,990.22
2018-02-01T03:45:07.602Z,990.23
2018-02-01T03:45:48.041Z,990.24
2018-02-01T03:46:28.573Z,990.27
2018-02-01T03:47:09.151Z,990.26
2018-02-01T03:47:49.714Z,990.24
2018-02-01T03:48:30.277Z,990.23
2018-02-01T03:49:10.796Z,990.23
2018-02-01T03:49:51.319Z,990.25
2018-02-01T03:50:31.821Z,990.22
2018-02-01T03:51:12.376Z,990.27
2018-02-01T03:51:52.956Z,990.27
2018-02-01T03:52:33.512Z,990.24
2018-02-01T03:53:14.023Z,990.24
2018-02-01T03:53:54.553Z,990.22
2018-02-01T03:54:35.087Z,990.25
2018-02-01T03:55:15.617Z,990.29
2018-02-01T03:55:56.152Z,990.23
2018-02-01T03:56:36.704Z,990.26
2018-02-01T03:57:17.282Z,990.23
2018-02-01T03:57:57.818Z,990.25
2018-02-01T03:58:38.317Z,990.26
2018-02-01T03:59:18.862Z,990.2
2018-02-01T03:59:59.411Z,990.24
2018-02-01T04:00:39.945Z,990.27
2018-02-01T04:01:20.471Z,990.23
2018-02-01T04:02:01.096Z,990.23
2018-02-01T04:02:41.712Z,990.23
2018-02-01T04:03:22.416Z,990.24
2018-02-01T04:04:03.020Z,990.25
2018-02-01T04:04:43.710Z,990.25
2018-02-01T04:05:24.129Z,990.28
2018-02-01T04:06:04.628Z,990.24
2018-02-01T04:06:45.155Z,990.25
2018-02-01T04:07:25.682Z,990.23
2018-02-01T04:08:06.240Z,990.24
2018-02-01T04:08:46.806Z,990.2
2018-02-01T04:09:27.363Z,990.21
2018-02-01T04:10:07.915Z,990.23
2018-02-01T04:10:48.440Z,990.25
2018-02-01T04:11:29.016Z,990.24
2018-02-01T04:12:09.552Z,990.19
2018-02-01T04:12:50.099Z,990.19
2018-02-01T04:13:30.673Z,990.2
2018-02-01T04:14:11.190Z,990.15
2018-02-01T04:14:51.734Z,990.19
2018-02-01T04:15:32.280Z,990.18
2018-02-01T04:16:12.828Z,990.15
2018-02-01T04:16:53.347Z,990.21
2018-02-01T04:17:33.897Z,990.18
2018-02-01T04:18:14.452Z,990.08
2018-02-01T04:18:55.380Z,990.12
2018-02-01T04:19:35.895Z,990.15
2018-02-01T04:20:16.520Z,990.13
2018-02-01T04:20:57.081Z,990.1
2018-02-01T04:21:37.633Z,990.14
2018-02-01T04:22:18.116Z,990.09
2018-02-01T04:22:58.669Z,990.11
2018-02-01T04:23:39.188Z,990.15
2018-02-01T04:24:19.718Z,990.08
2018-02-01T04:25:00.237Z,990.08
2018-02-01T04:25:40.810Z,990.07
2018-02-01T04:26:21.732Z,990.1
2018-02-01T04:27:02.549Z,990.06
2018-02-01T04:27:43.292Z,990.14
2018-02-01T04:28:23.828Z,990.11
2018-02-01T04:29:04.355Z,990.1
2018-02-01T04:29:44.913Z,990.08
2018-02-01T04:30:25.435Z,990.07
2018-02-01T04:31:05.988Z,990.08
2018-02-01T04:31:46.657Z,990
2018-02-01T04:32:27.749Z,990.1
2018-02-01T04:33:08.318Z,990.06
2018-02-01T04:33:48.857Z,990.03
2018-02-01T04:34:29.404Z,990.05
2018-02-01T04:35:09.947Z,990.03
2018-02-01T04:35:50.470Z,990.01
2018-02-01T04:36:31.044Z,990.01
2018-02-01T04:37:11.972Z,989.98
2018-02-01T04:37:53.279Z,990.03
2018-02-01T04:38:33.848Z,990.03
2018-02-01T04:39:14.362Z,990.05
2018-02-01T04:39:54.945Z,990.11
2018-02-01T04:40:35.477Z,990.14
2018-02-01T04:41:16.030Z,990.12
2018-02-01T04:41:56.581Z,990.17
2018-02-01T04:42:38.095Z,990.17
2018-02-01T04:43:18.598Z,990.19
2018-02-01T04:43:59.154Z,990.16
2018-02-01T04:44:39.715Z,990.22
2018-02-01T04:45:20.298Z,990.23
2018-02-01T04:46:00.911Z,990.26
2018-02-01T04:46:42.397Z,990.28
2018-02-01T04:47:23.028Z,990.29
2018-02-01T04:48:03.682Z,990.28
2018-02-01T04:48:44.158Z,990.24
2018-02-01T04:49:24.648Z,990.2
2018-02-01T04:50:05.193Z,990.2
2018-02-01T04:50:45.811Z,990.18
2018-02-01T04:51:26.395Z,990.15
2018-02-01T04:52:06.936Z,990.18
2018-02-01T04:52:48.077Z,990.26
2018-02-01T04:53:28.691Z,990.22
2018-02-01T04:54:09.155Z,990.24
2018-02-01T04:54:49.775Z,990.27
2018-02-01T04:55:30.293Z,990.23
2018-02-01T04:56:10.838Z,990.26
2018-02-01T04:56:52.068Z,990.28
2018-02-01T04:57:32.759Z,990.25
2018-02-01T04:58:13.242Z,990.3
2018-02-01T04:58:53.789Z,990.29
2018-02-01T04:59:34.284Z,990.3
2018-02-01T05:00:14.920Z,990.29
2018-02-01T05:00:55.388Z,990.29
2018-02-01T05:01:35.934Z,990.27
2018-02-01T05:02:16.484Z,990.23
2018-02-01T05:02:57.788Z,990.24
2018-02-01T05:03:38.439Z,990.19
2018-02-01T05:04:19.031Z,990.16
2018-02-01T05:04:59.668Z,990.17
2018-02-01T05:05:40.180Z,990.25
2018-02-01T05:06:23.447Z,990.23
2018-02-01T05:07:04.008Z,990.19
2018-02-01T05:07:44.576Z,990.23
2018-02-01T05:08:25.109Z,990.22
2018-02-01T05:09:05.671Z,990.24
2018-02-01T05:09:46.201Z,990.27
2018-02-01T05:10:26.884Z,990.25
2018-02-01T05:11:07.552Z,990.2
2018-02-01T05:11:48.125Z,990.25
2018-02-01T05:12:28.688Z,990.26
2018-02-01T05:13:09.299Z,990.21
2018-02-01T05:13:49.856Z,990.2
2018-02-01T05:14:30.450Z,990.19
2018-02-01T05:15:10.932Z,990.18
2018-02-01T05:15:51.465Z,990.16
2018-02-01T05:16:32.007Z,990.18
2018-02-01T05:17:12.539Z,990.2
2018-02-01T05:17:53.088Z,990.16
2018-02-01T05:18:33.624Z,990.22
2018-02-01T05:19:14.148Z,990.17
2018-02-01T05:19:54.703Z,990.19
2018-02-01T05:20:35.225Z,990.22
2018-02-01T05:21:15.766Z,990.23
2018-02-01T05:21:56.372Z,990.19
2018-02-01T05:22:36.864Z,990.19
2018-02-01T05:23:17.399Z,990.2
2018-02-01T05:23:57.992Z,990.19
2018-02-01T05:24:38.496Z,990.16
2018-02-01T05:25:19.089Z,990.21
2018-02-01T05:25:59.565Z,990.22
2018-02-01T05:26:40.161Z,990.22
2018-02-01T05:27:20.681Z,990.18
2018-02-01T05:28:01.243Z,990.24
2018-02-01T05:28:41.837Z,990.19
2018-02-01T05:29:22.390Z,990.19
2018-02-01T05:30:02.886Z,990.17
2018-02-01T05:30:43.463Z,990.18
2018-02-01T05:31:23.943Z,990.23
2018-02-01T05:32:04.474Z,990.27
2018-02-01T05:32:45.029Z,990.21
2018-02-01T05:33:25.588Z,990.2
2018-02-01T05:34:06.164Z,990.22
2018-02-01T05:34:46.672Z,990.17
2018-02-01T05:35:27.168Z,990.16
2018-02-01T05:36:07.710Z,990.15
2018-02-01T05:36:48.277Z,990.11
2018-02-01T05:37:28.809Z,990.15
2018-02-01T05:38:09.370Z,990.14
2018-02-01T05:38:49.908Z,990.09
2018-02-01T05:39:30.484Z,990.08
2018-02-01T05:40:10.977Z,990.1
2018-02-01T05:40:51.470Z,990.1
2018-02-01T05:41:32.034Z,990.11
2018-02-01T05:42:12.563Z,990.14
2018-02-01T05:42:53.118Z,990.12
2018-02-01T05:43:33.627Z,990.15
2018-02-01T05:44:14.173Z,990.15
2018-02-01T05:44:54.753Z,990.11
2018-02-01T05:45:35.220Z,990.12
2018-02-01T05:46:15.809Z,990.15
2018-02-01T05:46:56.329Z,990.18
2018-02-01T05:47:36.894Z,990.15
2018-02-01T05:48:17.393Z,990.13
2018-02-01T05:48:57.944Z,990.1
2018-02-01T05:49:38.503Z,990.12
2018-02-01T05:50:18.998Z,990.14
2018-02-01T05:50:59.513Z,990.2
2018-02-01T05:51:40.044Z,990.19
2018-02-01T05:52:20.589Z,990.21
2018-02-01T05:53:01.169Z,990.29
2018-02-01T05:53:41.774Z,990.21
2018-02-01T05:54:22.271Z,990.26
2018-02-01T05:55:02.806Z,990.24
2018-02-01T05:55:43.363Z,990.26
2018-02-01T05:56:24.009Z,990.21
2018-02-01T05:57:04.440Z,990.27
2018-02-01T05:57:44.987Z,990.22
2018-02-01T05:58:25.522Z,990.22
2018-02-01T05:59:06.063Z,990.21
2018-02-01T05:59:46.711Z,990.18
2018-02-01T06:00:27.563Z,990.23
2018-02-01T06:01:08.789Z,990.25
2018-02-01T06:01:49.246Z,990.23
2018-02-01T06:02:30.127Z,990.21
2018-02-01T06:03:10.591Z,990.13
2018-02-01T06:03:51.203Z,990.18
2018-02-01T06:04:31.896Z,990.2
2018-02-01T06:05:12.415Z,990.21
2018-02-01T06:05:52.987Z,990.23
2018-02-01T06:06:33.479Z,990.27
2018-02-01T06:07:14.101Z,990.28
2018-02-01T06:07:54.658Z,990.26
2018-02-01T06:08:43.652Z,990.19
2018-02-01T06:09:24.565Z,990.24
2018-02-01T06:10:05.130Z,990.29
2018-02-01T06:10:45.668Z,990.28
2018-02-01T06:11:26.207Z,990.3
2018-02-01T06:12:06.732Z,990.3
2018-02-01T06:12:52.473Z,990.35
2018-02-01T06:13:30.961Z,990.33
2018-02-01T06:14:11.511Z,990.32
2018-02-01T06:14:52.297Z,990.34
2018-02-01T06:15:32.845Z,990.39
2018-02-01T06:16:13.394Z,990.34
2018-02-01T06:16:53.969Z,990.32
2018-02-01T06:17:34.490Z,990.3
2018-02-01T06:18:15.046Z,990.31
2018-02-01T06:18:55.548Z,990.29
2018-02-01T06:19:36.151Z,990.23
2018-02-01T06:20:17.156Z,990.27
2018-02-01T06:20:57.929Z,990.3
2018-02-01T06:21:38.471Z,990.28
2018-02-01T06:22:18.976Z,990.31
2018-02-01T06:22:59.507Z,990.26
2018-02-01T06:23:40.028Z,990.26
2018-02-01T06:24:20.565Z,990.26
2018-02-01T06:25:01.266Z,990.29
2018-02-01T06:25:41.905Z,990.28
2018-02-01T06:26:22.606Z,990.22
2018-02-01T06:27:04.754Z,990.2
2018-02-01T06:27:45.340Z,990.23
2018-02-01T06:28:25.961Z,990.28
2018-02-01T06:29:06.446Z,990.31
2018-02-01T06:29:46.960Z,990.29
2018-02-01T06:30:27.511Z,990.34
2018-02-01T06:31:08.192Z,990.26
2018-02-01T06:31:48.806Z,990.27
2018-02-01T06:32:29.412Z,990.29
2018-02-01T06:33:09.895Z,990.27
2018-02-01T06:33:50.479Z,990.28
2018-02-01T06:34:31.067Z,990.21
2018-02-01T06:35:11.599Z,990.23
2018-02-01T06:35:52.116Z,990.25
2018-02-01T06:36:32.702Z,990.22
2018-02-01T06:37:13.402Z,990.19
2018-02-01T06:37:54.054Z,990.19
2018-02-01T06:38:34.721Z,990.17
2018-02-01T06:39:15.413Z,990.16
2018-02-01T06:39:56.033Z,990.18
2018-02-01T06:40:36.665Z,990.17
2018-02-01T06:41:21.653Z,990.2
2018-02-01T06:43:14.728Z,990.23
2018-02-01T06:43:56.486Z,990.23
2018-02-01T06:44:37.592Z,990.26
2018-02-01T06:45:18.840Z,990.28
2018-02-01T06:45:59.698Z,990.29
2018-02-01T06:46:40.242Z,990.21
2018-02-01T06:47:20.790Z,990.26
2018-02-01T06:48:01.653Z,990.28
2018-02-01T06:48:42.142Z,990.25
2018-02-01T06:49:22.691Z,990.26
2018-02-01T06:50:03.190Z,990.35
2018-02-01T06:50:43.828Z,990.32
2018-02-01T06:51:24.285Z,990.34
2018-02-01T06:52:04.942Z,990.39
2018-02-01T06:52:45.452Z,990.38
2018-02-01T06:53:26.210Z,990.41
2018-02-01T06:54:06.991Z,990.48
2018-02-01T06:54:47.369Z,990.39
2018-02-01T06:55:28.006Z,990.4
2018-02-01T06:56:08.561Z,990.36
2018-02-01T06:56:49.123Z,990.42
2018-02-01T06:57:29.698Z,990.41
2018-02-01T06:58:10.231Z,990.44
2018-02-01T06:58:50.859Z,990.44
2018-02-01T06:59:31.423Z,990.48
2018-02-01T07:00:11.978Z,990.45
2018-02-01T07:00:52.536Z,990.41
2018-02-01T07:01:33.121Z,990.48
2018-02-01T07:02:13.675Z,990.47
2018-02-01T07:02:54.214Z,990.44
2018-02-01T07:03:34.804Z,990.44
2018-02-01T07:04:15.359Z,990.43
2018-02-01T07:04:55.942Z,990.55
2018-02-01T07:05:36.562Z,990.48
2018-02-01T07:06:17.086Z,990.52
2018-02-01T07:06:57.656Z,990.5
2018-02-01T07:07:38.197Z,990.5
2018-02-01T07:08:18.746Z,990.49
2018-02-01T07:08:59.259Z,990.57
2018-02-01T07:09:39.812Z,990.57
2018-02-01T07:10:20.375Z,990.53
2018-02-01T07:11:00.884Z,990.56
2018-02-01T07:11:41.400Z,990.55
2018-02-01T07:12:21.960Z,990.51
2018-02-01T07:13:04.159Z,990.55
2018-02-01T07:13:44.742Z,990.59
2018-02-01T07:14:25.227Z,990.62
2018-02-01T07:15:05.819Z,990.61
2018-02-01T07:15:46.307Z,990.63
2018-02-01T07:16:26.956Z,990.61
2018-02-01T07:17:07.460Z,990.66
2018-02-01T07:17:48.002Z,990.6
2018-02-01T07:18:28.504Z,990.63
2018-02-01T07:19:09.133Z,990.65
2018-02-01T07:19:49.665Z,990.65
2018-02-01T07:20:30.190Z,990.62
2018-02-01T07:21:10.736Z,990.61
2018-02-01T07:21:51.302Z,990.56
2018-02-01T07:22:31.796Z,990.57
2018-02-01T07:23:12.335Z,990.61
2018-02-01T07:23:52.890Z,990.59
2018-02-01T07:24:33.408Z,990.61
2018-02-01T07:25:13.980Z,990.64
2018-02-01T07:25:54.542Z,990.67
2018-02-01T07:26:35.008Z,990.62
2018-02-01T07:27:15.599Z,990.59
2018-02-01T07:27:56.258Z,990.65
2018-02-01T07:28:36.751Z,990.65
2018-02-01T07:29:17.273Z,990.62
2018-02-01T07:29:57.835Z,990.69
2018-02-01T07:30:38.390Z,990.64
2018-02-01T07:31:18.924Z,990.69
2018-02-01T07:31:59.542Z,990.7
2018-02-01T07:32:40.057Z,990.74
2018-02-01T07:33:20.647Z,990.76
2018-02-01T07:34:01.211Z,990.79
2018-02-01T07:34:41.708Z,990.76
2018-02-01T07:35:22.424Z,990.72
2018-02-01T07:36:02.929Z,990.71
2018-02-01T07:36:43.387Z,990.75
2018-02-01T07:37:23.958Z,990.72
2018-02-01T07:38:04.533Z,990.77
2018-02-01T07:38:45.121Z,990.77
2018-02-01T07:39:25.745Z,990.77
2018-02-01T07:40:06.263Z,990.84
2018-02-01T07:40:46.782Z,990.87
2018-02-01T07:41:27.318Z,990.86
2018-02-01T07:42:07.844Z,990.85
2018-02-01T07:42:48.371Z,990.94
2018-02-01T07:43:28.927Z,990.93
2018-02-01T07:44:09.568Z,990.94
2018-02-01T07:44:50.213Z,990.97
2018-02-01T07:45:30.765Z,991
2018-02-01T07:46:11.312Z,990.98
2018-02-01T07:46:51.867Z,990.96
2018-02-01T07:47:32.388Z,990.96
2018-02-01T07:48:12.928Z,991.03
2018-02-01T07:48:53.555Z,991
2018-02-01T07:49:33.984Z,991.04
2018-02-01T07:50:14.552Z,991.01
2018-02-01T07:50:55.089Z,991.04
2018-02-01T07:51:35.612Z,991.07
2018-02-01T07:52:16.166Z,991.07
2018-02-01T07:52:56.730Z,991.09
2018-02-01T07:53:37.248Z,991.04
2018-02-01T07:54:17.812Z,991.1
2018-02-01T07:54:58.327Z,991.1
2018-02-01T07:55:38.872Z,991.06
2018-02-01T07:56:19.425Z,991.11
2018-02-01T07:56:59.920Z,991.09
2018-02-01T07:57:40.427Z,991.08
2018-02-01T07:58:20.940Z,991.15
2018-02-01T07:59:01.548Z,991.12
2018-02-01T07:59:42.018Z,991.1
2018-02-01T08:00:22.540Z,991.1
2018-02-01T08:01:03.117Z,991.09
2018-02-01T08:01:43.608Z,991.16
2018-02-01T08:02:24.191Z,991.14
2018-02-01T08:03:04.751Z,991.17
2018-02-01T08:03:45.259Z,991.16
2018-02-01T08:04:25.775Z,991.16
2018-02-01T08:05:06.338Z,991.19
2018-02-01T08:05:46.886Z,991.23
2018-02-01T08:06:27.390Z,991.22
2018-02-01T08:07:07.987Z,991.2
2018-02-01T08:07:48.562Z,991.24
2018-02-01T08:08:29.071Z,991.33
2018-02-01T08:09:09.601Z,991.24
2018-02-01T08:09:50.209Z,991.21
2018-02-01T08:10:30.710Z,991.22
2018-02-01T08:11:11.249Z,991.24
2018-02-01T08:11:51.806Z,991.28
2018-02-01T08:12:32.370Z,991.24
2018-02-01T08:13:12.896Z,991.23
2018-02-01T08:13:53.430Z,991.24
2018-02-01T08:14:33.979Z,991.25
2018-02-01T08:15:14.506Z,991.21
2018-02-01T08:15:55.064Z,991.24
2018-02-01T08:16:35.664Z,991.25
2018-02-01T08:17:16.189Z,991.25
2018-02-01T08:17:56.691Z,991.23
2018-02-01T08:18:37.220Z,991.25
2018-02-01T08:19:17.788Z,991.25
2018-02-01T08:19:58.275Z,991.28
2018-02-01T08:20:38.806Z,991.34
2018-02-01T08:21:19.431Z,991.27
2018-02-01T08:21:59.988Z,991.32
2018-02-01T08:22:40.492Z,991.33
2018-02-01T08:23:21.037Z,991.27
2018-02-01T08:24:01.608Z,991.31
2018-02-01T08:24:42.135Z,991.29
2018-02-01T08:25:22.656Z,991.3
2018-02-01T08:26:03.217Z,991.32
2018-02-01T08:26:43.737Z,991.28
2018-02-01T08:27:24.312Z,991.35
2018-02-01T08:28:04.906Z,991.33
2018-02-01T08:28:45.445Z,991.32
2018-02-01T08:29:26.003Z,991.37